Time,TemperatureF,DewpointF,PressureIn,WindDirection,WindDirectionDegrees,WindSpeedMPH,WindSpeedGustMPH,Humidity,HourlyPrecipIn,Conditions,Clouds,dailyrainin,SoftwareType,DateUTC
2013-01-12 00:30:00,65.2,63.0,30.20,South,171,3.0,5.0,93,0.00,,,0.00,weatherlink.com 1.10,2013-01-12 05:30:00,
2013-01-12 00:45:00,65.1,63.0,30.20,South,171,0.0,4.0,93,0.00,,,0.00,weatherlink.com 1.10,2013-01-12 05:45:00,
2013-01-12 01:00:00,64.9,63.0,30.19,South,171,1.0,2.0,93,0.00,,,0.00,weatherlink.com 1.10,2013-01-12 06:00:00,
2013-01-12 01:15:00,64.2,62.0,30.19,South,171,0.0,3.0,93,0.00,,,0.00,weatherlink.com 1.10,2013-01-12 06:15:00,
2013-01-12 01:30:00,63.7,62.0,30.19,South,171,0.0,3.0,93,0.00,,,0.00,weatherlink.com 1.10,2013-01-12 06:30:00,
2013-01-12 01:45:00,62.9,61.0,30.19,South,171,0.0,0.0,93,0.00,,,0.00,weatherlink.com 1.10,2013-01-12 06:45:00,
2013-01-12 02:00:00,62.2,60.0,30.19,South,171,0.0,2.0,93,0.00,,,0.00,weatherlink.com 1.10,2013-01-12 07:00:00,
2013-01-12 02:15:00,62.1,60.0,30.18,South,171,0.0,2.0,94,0.00,,,0.00,weatherlink.com 1.10,2013-01-12 07:15:00,
2013-01-12 02:30:00,61.8,60.0,30.18,South,171,0.0,1.0,94,0.00,,,0.00,weatherlink.com 1.10,2013-01-12 07:30:00,
2013-01-12 02:45:00,61.5,60.0,30.18,South,171,0.0,1.0,94,0.00,,,0.00,weatherlink.com 1.10,2013-01-12 07:45:00,
2013-01-12 03:00:00,61.3,60.0,30.18,South,171,0.0,1.0,94,0.00,,,0.00,weatherlink.com 1.10,2013-01-12 08:00:00,
2013-01-12 03:15:00,60.7,59.0,30.18,South,171,0.0,0.0,94,0.00,,,0.00,weatherlink.com 1.10,2013-01-12 08:15:00,
2013-01-12 03:30:00,60.1,58.0,30.17,South,171,0.0,0.0,94,0.00,,,0.00,weatherlink.com 1.10,2013-01-12 08:30:00,
2013-01-12 03:45:00,59.8,58.0,30.17,South,171,0.0,0.0,94,0.00,,,0.00,weatherlink.com 1.10,2013-01-12 08:45:00,
2013-01-12 04:00:00,59.4,58.0,30.18,South,171,0.0,0.0,94,0.00,,,0.00,weatherlink.com 1.10,2013-01-12 09:00:00,
2013-01-12 04:15:00,59.3,58.0,30.18,South,171,0.0,0.0,94,0.00,,,0.00,weatherlink.com 1.10,2013-01-12 09:15:00,
2013-01-12 04:31:00,59.0,57.0,30.18,South,171,0.0,0.0,94,0.00,,,0.00,weatherlink.com 1.10,2013-01-12 09:31:00,
2013-01-12 04:46:00,58.8,57.0,30.18,South,171,0.0,0.0,94,0.00,,,0.00,weatherlink.com 1.10,2013-01-12 09:46:00,
2013-01-12 05:01:00,59.0,58.0,30.17,South,171,0.0,0.0,95,0.00,,,0.00,weatherlink.com 1.10,2013-01-12 10:01:00,
2013-01-12 05:16:00,58.3,57.0,30.17,South,171,0.0,0.0,94,0.00,,,0.00,weatherlink.com 1.10,2013-01-12 10:16:00,
2013-01-12 05:31:00,58.1,57.0,30.17,South,171,0.0,0.0,95,0.00,,,0.00,weatherlink.com 1.10,2013-01-12 10:31:00,
2013-01-12 05:46:00,58.2,57.0,30.17,South,171,0.0,0.0,95,0.00,,,0.00,weatherlink.com 1.10,2013-01-12 10:46:00,
2013-01-12 06:01:00,58.2,57.0,30.17,South,171,0.0,0.0,95,0.00,,,0.00,weatherlink.com 1.10,2013-01-12 11:01:00,
2013-01-12 06:16:00,58.1,57.0,30.18,South,171,0.0,0.0,95,0.00,,,0.00,weatherlink.com 1.10,2013-01-12 11:16:00,
2013-01-12 06:31:00,58.3,57.0,30.19,South,171,0.0,0.0,95,0.00,,,0.00,weatherlink.com 1.10,2013-01-12 11:31:00,
2013-01-12 06:46:00,58.2,57.0,30.19,South,171,0.0,0.0,95,0.00,,,0.00,weatherlink.com 1.10,2013-01-12 11:46:00,
2013-01-12 07:01:00,58.4,57.0,30.20,South,171,0.0,0.0,95,0.00,,,0.00,weatherlink.com 1.10,2013-01-12 12:01:00,
2013-01-12 07:16:00,58.7,57.0,30.20,South,171,0.0,0.0,95,0.00,,,0.00,weatherlink.com 1.10,2013-01-12 12:16:00,
2013-01-12 07:31:00,59.5,58.0,30.20,South,171,0.0,0.0,95,0.00,,,0.00,weatherlink.com 1.10,2013-01-12 12:31:00,
2013-01-12 07:46:00,59.4,58.0,30.20,South,171,0.0,0.0,95,0.00,,,0.00,weatherlink.com 1.10,2013-01-12 12:46:00,
2013-01-12 08:01:00,59.5,58.0,30.21,South,171,0.0,0.0,95,0.00,,,0.00,weatherlink.com 1.10,2013-01-12 13:01:00,
2013-01-12 08:16:00,60.4,59.0,30.21,South,171,0.0,0.0,95,0.00,,,0.00,weatherlink.com 1.10,2013-01-12 13:16:00,
2013-01-12 08:31:00,61.5,60.0,30.21,South,171,0.0,1.0,95,0.00,,,0.00,weatherlink.com 1.10,2013-01-12 13:31:00,
2013-01-12 08:46:00,62.2,61.0,30.22,South,171,0.0,0.0,95,0.00,,,0.00,weatherlink.com 1.10,2013-01-12 13:46:00,
2013-01-12 09:01:00,63.6,62.0,30.21,South,171,0.0,0.0,95,0.00,,,0.00,weatherlink.com 1.10,2013-01-12 14:01:00,
2013-01-12 09:16:00,66.3,65.0,30.21,South,171,0.0,1.0,96,0.00,,,0.00,weatherlink.com 1.10,2013-01-12 14:16:00,
2013-01-12 09:31:00,68.1,67.0,30.21,South,171,0.0,3.0,95,0.00,,,0.00,weatherlink.com 1.10,2013-01-12 14:31:00,
2013-01-12 09:46:00,69.7,68.0,30.21,South,171,0.0,3.0,95,0.00,,,0.00,weatherlink.com 1.10,2013-01-12 14:46:00,
2013-01-12 10:01:00,71.8,69.0,30.21,South,174,4.0,6.0,92,0.00,,,0.00,weatherlink.com 1.10,2013-01-12 15:01:00,
2013-01-12 10:16:00,73.5,70.0,30.21,South,175,1.0,6.0,88,0.00,,,0.00,weatherlink.com 1.10,2013-01-12 15:16:00,
2013-01-12 10:31:00,75.2,71.0,30.20,SSW,194,3.0,7.0,85,0.00,,,0.00,weatherlink.com 1.10,2013-01-12 15:31:00,
2013-01-12 10:46:00,76.4,71.0,30.20,SSW,211,3.0,7.0,82,0.00,,,0.00,weatherlink.com 1.10,2013-01-12 15:46:00,
2013-01-12 11:01:00,77.4,71.0,30.19,South,182,5.0,7.0,80,0.00,,,0.00,weatherlink.com 1.10,2013-01-12 16:01:00,
2013-01-12 11:16:00,77.5,70.0,30.18,SE,138,2.0,7.0,77,0.00,,,0.00,weatherlink.com 1.10,2013-01-12 16:16:00,
2013-01-12 11:31:00,78.4,71.0,30.18,SE,136,2.0,4.0,77,0.00,,,0.00,weatherlink.com 1.10,2013-01-12 16:31:00,
2013-01-12 11:46:00,78.6,70.0,30.17,South,170,0.0,7.0,75,0.00,,,0.00,weatherlink.com 1.10,2013-01-12 16:46:00,
2013-01-12 12:01:00,78.6,70.0,30.16,SSE,158,5.0,7.0,75,0.00,,,0.00,weatherlink.com 1.10,2013-01-12 17:01:00,
2013-01-12 12:16:00,79.0,69.0,30.15,SE,142,1.0,8.0,72,0.00,,,0.00,weatherlink.com 1.10,2013-01-12 17:16:00,
2013-01-12 12:31:00,79.3,71.0,30.14,ESE,122,2.0,7.0,75,0.00,,,0.00,weatherlink.com 1.10,2013-01-12 17:31:00,
2013-01-12 12:47:00,79.4,69.0,30.14,South,170,3.0,7.0,71,0.00,,,0.00,weatherlink.com 1.10,2013-01-12 17:47:00,
2013-01-12 13:02:00,80.0,69.0,30.14,East,95,2.0,9.0,70,0.00,,,0.00,weatherlink.com 1.10,2013-01-12 18:02:00,
2013-01-12 13:17:00,80.8,69.0,30.13,ESE,119,7.0,8.0,68,0.00,,,0.00,weatherlink.com 1.10,2013-01-12 18:17:00,
2013-01-12 13:32:00,80.8,67.0,30.13,ESE,108,2.0,10.0,64,0.00,,,0.00,weatherlink.com 1.10,2013-01-12 18:32:00,
2013-01-12 13:47:00,81.1,65.0,30.13,South,177,5.0,9.0,59,0.00,,,0.00,weatherlink.com 1.10,2013-01-12 18:47:00,
2013-01-12 14:02:00,81.0,65.0,30.13,SSE,156,7.0,12.0,58,0.00,,,0.00,weatherlink.com 1.10,2013-01-12 19:02:00,
2013-01-12 14:17:00,80.5,66.0,30.12,SE,129,3.0,9.0,62,0.00,,,0.00,weatherlink.com 1.10,2013-01-12 19:17:00,
2013-01-12 14:32:00,79.9,67.0,30.13,ESE,119,7.0,7.0,65,0.00,,,0.00,weatherlink.com 1.10,2013-01-12 19:32:00,
2013-01-12 14:47:00,79.6,67.0,30.12,East,93,8.0,10.0,65,0.00,,,0.00,weatherlink.com 1.10,2013-01-12 19:47:00,
2013-01-12 15:02:00,79.6,67.0,30.13,ESE,113,2.0,10.0,66,0.00,,,0.00,weatherlink.com 1.10,2013-01-12 20:02:00,
2013-01-12 15:17:00,79.5,67.0,30.13,East,101,6.0,10.0,65,0.00,,,0.00,weatherlink.com 1.10,2013-01-12 20:17:00,
2013-01-12 15:32:00,79.1,67.0,30.13,SE,139,3.0,8.0,66,0.00,,,0.00,weatherlink.com 1.10,2013-01-12 20:32:00,
2013-01-12 15:47:00,78.1,65.0,30.13,ESE,123,4.0,9.0,65,0.00,,,0.00,weatherlink.com 1.10,2013-01-12 20:47:00,
2013-01-12 16:02:00,78.6,66.0,30.13,SSE,155,3.0,8.0,66,0.00,,,0.00,weatherlink.com 1.10,2013-01-12 21:02:00,
2013-01-12 16:17:00,77.0,65.0,30.14,ESE,112,3.0,10.0,67,0.00,,,0.00,weatherlink.com 1.10,2013-01-12 21:17:00,
2013-01-12 16:32:00,75.7,66.0,30.14,SE,135,2.0,7.0,71,0.00,,,0.00,weatherlink.com 1.10,2013-01-12 21:32:00,
2013-01-12 16:47:00,75.0,66.0,30.14,SE,138,1.0,4.0,73,0.00,,,0.00,weatherlink.com 1.10,2013-01-12 21:47:00,
2013-01-12 17:02:00,73.6,66.0,30.14,SE,128,1.0,6.0,76,0.00,,,0.00,weatherlink.com 1.10,2013-01-12 22:02:00,
2013-01-12 17:17:00,72.4,66.0,30.14,SE,140,2.0,4.0,81,0.00,,,0.00,weatherlink.com 1.10,2013-01-12 22:17:00,
2013-01-12 17:32:00,71.1,66.0,30.14,ESE,115,2.0,4.0,84,0.00,,,0.00,weatherlink.com 1.10,2013-01-12 22:32:00,
2013-01-12 17:47:00,69.7,66.0,30.14,ESE,117,1.0,5.0,87,0.00,,,0.00,weatherlink.com 1.10,2013-01-12 22:47:00,
2013-01-12 18:02:00,68.4,65.0,30.15,SE,132,2.0,6.0,89,0.00,,,0.00,weatherlink.com 1.10,2013-01-12 23:02:00,
2013-01-12 18:17:00,67.5,65.0,30.15,SE,139,1.0,4.0,90,0.00,,,0.00,weatherlink.com 1.10,2013-01-12 23:17:00,
2013-01-12 18:32:00,66.8,64.0,30.15,ESE,115,0.0,2.0,91,0.00,,,0.00,weatherlink.com 1.10,2013-01-12 23:32:00,
2013-01-12 18:47:00,66.5,64.0,30.15,ESE,115,1.0,2.0,92,0.00,,,0.00,weatherlink.com 1.10,2013-01-12 23:47:00,
2013-01-12 19:02:00,66.1,64.0,30.15,ESE,115,2.0,3.0,92,0.00,,,0.00,weatherlink.com 1.10,2013-01-13 00:02:00,
2013-01-12 19:17:00,65.6,64.0,30.15,ESE,115,0.0,4.0,93,0.00,,,0.00,weatherlink.com 1.10,2013-01-13 00:17:00,
2013-01-12 19:32:00,66.2,64.0,30.14,SE,124,2.0,4.0,93,0.00,,,0.00,weatherlink.com 1.10,2013-01-13 00:32:00,
2013-01-12 19:47:00,66.4,64.0,30.14,ESE,122,2.0,4.0,93,0.00,,,0.00,weatherlink.com 1.10,2013-01-13 00:47:00,
2013-01-12 20:02:00,66.6,65.0,30.13,ESE,107,2.0,5.0,94,0.00,,,0.00,weatherlink.com 1.10,2013-01-13 01:02:00,
2013-01-12 20:17:00,66.9,65.0,30.12,East,97,3.0,6.0,94,0.00,,,0.00,weatherlink.com 1.10,2013-01-13 01:17:00,
2013-01-12 20:32:00,67.1,65.0,30.12,ESE,102,2.0,7.0,94,0.00,,,0.00,weatherlink.com 1.10,2013-01-13 01:32:00,
2013-01-12 20:47:00,67.0,65.0,30.12,SE,133,2.0,5.0,94,0.00,,,0.00,weatherlink.com 1.10,2013-01-13 01:47:00,
2013-01-12 21:02:00,67.0,65.0,30.11,SE,139,1.0,6.0,94,0.00,,,0.00,weatherlink.com 1.10,2013-01-13 02:02:00,
2013-01-12 21:17:00,66.7,65.0,30.11,SSE,153,4.0,5.0,94,0.00,,,0.00,weatherlink.com 1.10,2013-01-13 02:17:00,
2013-01-12 21:32:00,66.5,65.0,30.11,SE,124,2.0,4.0,94,0.00,,,0.00,weatherlink.com 1.10,2013-01-13 02:32:00,
2013-01-12 21:47:00,66.3,64.0,30.11,ESE,113,0.0,3.0,93,0.00,,,0.00,weatherlink.com 1.10,2013-01-13 02:47:00,
2013-01-12 22:02:00,66.0,64.0,30.11,SE,132,0.0,3.0,93,0.00,,,0.00,weatherlink.com 1.10,2013-01-13 03:02:00,
2013-01-12 22:17:00,65.3,63.0,30.12,SE,132,0.0,3.0,93,0.00,,,0.00,weatherlink.com 1.10,2013-01-13 03:17:00,
2013-01-12 22:32:00,64.9,63.0,30.12,SE,132,0.0,4.0,93,0.00,,,0.00,weatherlink.com 1.10,2013-01-13 03:32:00,
2013-01-12 22:47:00,64.6,63.0,30.12,SE,132,0.0,1.0,93,0.00,,,0.00,weatherlink.com 1.10,2013-01-13 03:47:00,
2013-01-12 23:02:00,64.6,63.0,30.12,SE,132,0.0,4.0,94,0.00,,,0.00,weatherlink.com 1.10,2013-01-13 04:02:00,
2013-01-12 23:17:00,64.4,63.0,30.12,SE,142,0.0,4.0,94,0.00,,,0.00,weatherlink.com 1.10,2013-01-13 04:17:00,
2013-01-12 23:32:00,64.2,63.0,30.12,SE,142,1.0,4.0,94,0.00,,,0.00,weatherlink.com 1.10,2013-01-13 04:32:00,
2013-01-12 23:47:00,63.7,62.0,30.12,SE,142,0.0,3.0,94,0.00,,,0.00,weatherlink.com 1.10,2013-01-13 04:47:00,